createdAt,value
2024-05-09T00:00:39.977Z,93.86
2024-05-09T00:03:26.650Z,94.01
2024-05-09T00:06:16.246Z,93.54
2024-05-09T00:09:01.375Z,94.04
2024-05-09T00:11:47.091Z,93.64
2024-05-09T00:14:32.483Z,93.89
2024-05-09T00:17:17.943Z,93.58
2024-05-09T00:20:09.069Z,94.10
2024-05-09T00:22:59.126Z,93.96
2024-05-09T00:25:45.459Z,93.79
2024-05-09T00:28:30.716Z,93.62
2024-05-09T00:31:16.433Z,94.07
2024-05-09T00:34:01.840Z,93.40
2024-05-09T00:36:47.466Z,94.19
2024-05-09T00:39:32.592Z,94.32
2024-05-09T00:42:18.040Z,94.40
2024-05-09T00:45:03.618Z,94.12
2024-05-09T00:47:49.517Z,94.27
2024-05-09T00:50:38.172Z,94.31
2024-05-09T00:53:24.749Z,94.20
2024-05-09T00:56:11.957Z,93.59
2024-05-09T00:58:57.338Z,93.88
2024-05-09T01:01:43.439Z,94.24
2024-05-09T01:04:28.926Z,94.48
2024-05-09T01:07:14.602Z,94.01
2024-05-09T01:10:00.035Z,94.58
2024-05-09T01:12:45.549Z,94.31
2024-05-09T01:15:30.903Z,94.38
2024-05-09T01:18:16.461Z,94.46
2024-05-09T01:21:02.191Z,95.49
2024-05-09T01:23:47.869Z,94.79
2024-05-09T01:26:33.323Z,94.44
2024-05-09T01:29:19.006Z,94.42
2024-05-09T01:32:05.086Z,94.56
2024-05-09T01:34:50.587Z,94.66
2024-05-09T01:37:36.057Z,94.43
2024-05-09T01:40:28.656Z,94.39
2024-05-09T01:43:20.798Z,94.31
2024-05-09T01:46:06.127Z,94.20
2024-05-09T01:48:51.610Z,94.66
2024-05-09T01:51:36.701Z,94.41
2024-05-09T01:54:22.382Z,94.35
2024-05-09T01:57:07.998Z,94.70
2024-05-09T01:59:53.603Z,95.20
2024-05-09T02:02:38.900Z,95.17
2024-05-09T02:05:24.591Z,95.18
2024-05-09T02:08:18.659Z,95.57
2024-05-09T02:11:04.736Z,94.91
2024-05-09T02:13:50.235Z,95.42
2024-05-09T02:16:35.724Z,95.57
2024-05-09T02:19:21.013Z,95.54
2024-05-09T02:22:06.755Z,95.16
2024-05-09T02:24:52.028Z,94.64
2024-05-09T02:27:37.919Z,94.67
2024-05-09T02:30:30.703Z,94.17
2024-05-09T02:33:24.045Z,94.78
2024-05-09T02:36:10.407Z,95.17
2024-05-09T02:38:56.007Z,95.07
2024-05-09T02:41:41.529Z,94.76
2024-05-09T02:44:27.064Z,94.91
2024-05-09T02:47:12.892Z,94.71
2024-05-09T02:49:58.545Z,95.16
2024-05-09T02:52:44.388Z,95.22
2024-05-09T02:55:29.948Z,95.11
2024-05-09T02:58:15.407Z,95.31
2024-05-09T03:01:01.249Z,95.69
2024-05-09T03:03:48.513Z,95.71
2024-05-09T03:06:34.107Z,95.85
2024-05-09T03:09:19.414Z,96.24
2024-05-09T03:12:05.192Z,95.95
2024-05-09T03:14:50.914Z,95.56
2024-05-09T03:17:36.908Z,95.79
2024-05-09T03:20:27.596Z,95.36
2024-05-09T03:23:18.340Z,95.62
2024-05-09T03:26:03.738Z,95.24
2024-05-09T03:28:49.518Z,95.86
2024-05-09T03:31:34.709Z,96.06
2024-05-09T03:34:20.501Z,95.42
2024-05-09T03:37:06.018Z,95.77
2024-05-09T03:39:51.366Z,95.84
2024-05-09T03:42:41.786Z,95.83
2024-05-09T03:45:27.016Z,96.07
2024-05-09T03:48:13.220Z,96.17
2024-05-09T03:50:58.739Z,95.87
2024-05-09T03:53:44.159Z,95.83
2024-05-09T03:56:29.730Z,95.55
2024-05-09T03:59:15.452Z,95.63
2024-05-09T04:02:01.042Z,96.16
2024-05-09T04:04:46.501Z,95.91
2024-05-09T04:07:33.367Z,95.93
2024-05-09T04:10:27.688Z,95.87
2024-05-09T04:13:17.931Z,96.27
2024-05-09T04:16:03.767Z,96.57
2024-05-09T04:18:49.710Z,96.26
2024-05-09T04:21:35.085Z,96.43
2024-05-09T04:24:20.398Z,96.41
2024-05-09T04:27:05.873Z,96.64
2024-05-09T04:29:51.447Z,97.04
2024-05-09T04:32:36.616Z,96.88
2024-05-09T04:35:22.583Z,97.36
2024-05-09T04:38:11.423Z,97.69
2024-05-09T04:40:56.844Z,97.92
2024-05-09T04:43:42.495Z,97.60
2024-05-09T04:46:28.071Z,97.44
2024-05-09T04:49:14.339Z,97.32
2024-05-09T04:52:02.667Z,97.34
2024-05-09T04:54:48.217Z,97.46
2024-05-09T04:57:34.042Z,97.11
2024-05-09T05:00:28.130Z,97.20
2024-05-09T05:03:18.254Z,97.00
2024-05-09T05:06:04.364Z,97.19
2024-05-09T05:08:49.823Z,97.43
2024-05-09T05:11:35.484Z,96.85
2024-05-09T05:14:20.850Z,96.87
2024-05-09T05:17:06.371Z,95.93
2024-05-09T05:19:51.928Z,95.79
2024-05-09T05:22:37.461Z,95.53
2024-05-09T05:25:22.629Z,95.58
2024-05-09T05:28:08.731Z,95.81
2024-05-09T05:30:54.490Z,95.25
2024-05-09T05:33:39.824Z,95.80
2024-05-09T05:36:25.264Z,95.24
2024-05-09T05:39:10.855Z,95.24
2024-05-09T05:41:56.567Z,95.32
2024-05-09T05:44:42.201Z,95.50
2024-05-09T05:47:27.932Z,95.23
2024-05-09T05:50:23.770Z,95.05
2024-05-09T05:53:13.467Z,94.50
2024-05-09T05:55:58.876Z,94.33
2024-05-09T05:58:44.420Z,94.44
2024-05-09T06:01:30.064Z,94.00
2024-05-09T06:04:15.773Z,93.63
2024-05-09T06:07:01.036Z,93.53
2024-05-09T06:09:47.602Z,93.87
2024-05-09T06:12:34.504Z,93.05
2024-05-09T06:15:19.838Z,93.72
2024-05-09T06:18:10.195Z,93.39
2024-05-09T06:20:56.941Z,92.86
2024-05-09T06:23:50.044Z,92.69
2024-05-09T06:26:35.759Z,92.71
2024-05-09T06:29:21.452Z,92.68
2024-05-09T06:32:07.147Z,92.24
2024-05-09T06:34:52.740Z,91.49
2024-05-09T06:37:38.479Z,91.66
2024-05-09T06:40:29.254Z,90.83
2024-05-09T06:43:20.134Z,91.04
2024-05-09T06:46:05.535Z,90.78
2024-05-09T06:48:51.521Z,90.27
2024-05-09T06:51:41.258Z,90.07
2024-05-09T06:54:26.878Z,89.59
2024-05-09T06:57:12.001Z,88.69
2024-05-09T07:00:01.360Z,88.45
2024-05-09T07:02:46.874Z,87.73
2024-05-09T07:05:33.401Z,86.94
2024-05-09T07:08:19.565Z,86.37
2024-05-09T07:11:05.136Z,85.34
2024-05-09T07:13:50.366Z,86.55
2024-05-09T07:16:35.993Z,85.77
2024-05-09T07:19:21.554Z,85.42
2024-05-09T07:22:07.135Z,84.78
2024-05-09T07:24:54.202Z,78.74
2024-05-09T07:27:39.833Z,71.88
2024-05-09T07:30:32.829Z,64.21
2024-05-09T07:33:22.469Z,59.46
2024-05-09T07:36:09.506Z,53.82
2024-05-09T07:38:54.970Z,47.10
2024-05-09T07:41:40.822Z,47.59
2024-05-09T07:44:26.279Z,42.86
2024-05-09T07:48:27.578Z,40.80
2024-05-09T07:53:36.368Z,38.61
2024-05-09T07:56:12.642Z,37.43
2024-05-09T07:58:58.202Z,37.28
2024-05-09T08:01:43.740Z,37.31
2024-05-09T08:04:29.426Z,36.30
2024-05-09T08:07:15.340Z,36.93
2024-05-09T08:10:00.911Z,37.06
2024-05-09T08:12:46.149Z,38.63
2024-05-09T08:15:31.559Z,38.79
2024-05-09T08:18:17.160Z,38.64
2024-05-09T08:21:02.610Z,39.94
2024-05-09T08:23:47.799Z,39.60
2024-05-09T08:26:33.194Z,41.56
2024-05-09T08:29:18.661Z,42.43
2024-05-09T08:32:05.920Z,43.99
2024-05-09T08:34:51.332Z,44.38
2024-05-09T08:37:39.891Z,45.22
2024-05-09T08:40:33.417Z,46.00
2024-05-09T08:43:24.422Z,47.00
2024-05-09T08:46:13.121Z,48.40
2024-05-09T08:48:59.745Z,51.51
2024-05-09T08:51:46.814Z,51.67
2024-05-09T08:54:32.229Z,52.41
2024-05-09T08:57:19.137Z,55.35
2024-05-09T09:00:10.107Z,56.54
2024-05-09T09:03:00.294Z,57.88
2024-05-09T09:06:07.822Z,56.99
2024-05-09T09:08:54.782Z,56.41
2024-05-09T09:11:39.939Z,55.33
2024-05-09T09:14:25.491Z,56.34
2024-05-09T09:17:17.165Z,56.60
2024-05-09T09:20:02.962Z,56.05
2024-05-09T09:22:48.293Z,55.14
2024-05-09T09:25:33.604Z,53.63
2024-05-09T09:28:22.756Z,54.63
2024-05-09T09:31:08.010Z,52.09
2024-05-09T09:33:54.027Z,50.91
2024-05-09T09:36:40.143Z,51.63
2024-05-09T09:39:28.628Z,50.97
2024-05-09T09:42:22.772Z,50.85
2024-05-09T09:45:08.339Z,48.69
2024-05-09T09:47:57.240Z,48.53
2024-05-09T09:50:43.400Z,50.75
2024-05-09T09:53:29.353Z,51.15
2024-05-09T09:56:18.081Z,51.21
2024-05-09T09:59:04.694Z,50.92
2024-05-09T10:01:50.345Z,48.87
2024-05-09T10:04:36.706Z,47.99
2024-05-09T10:07:22.784Z,48.01
2024-05-09T10:10:11.003Z,48.96
2024-05-09T10:13:06.365Z,50.35
2024-05-09T10:15:53.971Z,49.81
2024-05-09T10:18:40.767Z,48.27
2024-05-09T10:21:27.094Z,48.23
2024-05-09T10:24:12.864Z,46.62
2024-05-09T10:26:58.515Z,46.83
2024-05-09T10:29:53.785Z,46.34
2024-05-09T10:32:40.701Z,45.98
2024-05-09T10:35:26.912Z,46.74
2024-05-09T10:38:12.583Z,46.06
2024-05-09T10:41:00.022Z,45.04
2024-05-09T10:43:45.641Z,44.66
2024-05-09T10:46:31.296Z,44.97
2024-05-09T10:49:17.091Z,44.39
2024-05-09T10:52:03.855Z,44.22
2024-05-09T10:54:50.176Z,43.94
2024-05-09T10:57:40.738Z,43.54
2024-05-09T11:00:36.120Z,43.73
2024-05-09T11:03:26.088Z,43.27
2024-05-09T11:06:11.618Z,43.72
2024-05-09T11:08:57.630Z,45.52
2024-05-09T11:11:43.244Z,47.49
2024-05-09T11:14:28.459Z,46.89
2024-05-09T11:17:13.845Z,46.75
2024-05-09T11:20:00.412Z,46.02
2024-05-09T11:22:45.910Z,47.11
2024-05-09T11:25:33.229Z,46.23
2024-05-09T11:28:20.168Z,45.11
2024-05-09T11:31:07.907Z,45.18
2024-05-09T11:33:54.766Z,44.55
2024-05-09T11:36:40.408Z,44.88
2024-05-09T11:39:27.476Z,45.77
2024-05-09T11:42:13.075Z,42.98
2024-05-09T11:44:58.530Z,43.41
2024-05-09T11:47:44.332Z,41.84
2024-05-09T11:50:32.987Z,41.24
2024-05-09T11:53:20.707Z,41.41
2024-05-09T11:56:06.418Z,42.75
2024-05-09T11:58:52.283Z,45.25
2024-05-09T12:01:37.689Z,46.09
2024-05-09T12:04:23.336Z,46.29
2024-05-09T12:07:12.747Z,47.45
2024-05-09T12:09:59.808Z,47.36
2024-05-09T12:12:45.527Z,47.84
2024-05-09T12:15:31.086Z,48.14
2024-05-09T12:18:16.727Z,48.17
2024-05-09T12:21:02.769Z,49.45
2024-05-09T12:23:48.332Z,49.10
2024-05-09T12:26:33.514Z,48.51
2024-05-09T12:29:18.949Z,47.96
2024-05-09T12:32:04.870Z,48.58
2024-05-09T12:34:50.506Z,51.57
2024-05-09T12:37:36.130Z,53.53
2024-05-09T12:40:30.702Z,56.41
2024-05-09T12:43:20.569Z,56.69
2024-05-09T12:46:06.220Z,55.71
2024-05-09T12:48:52.090Z,54.99
2024-05-09T12:51:38.348Z,56.64
2024-05-09T12:54:23.738Z,58.07
2024-05-09T12:57:09.720Z,58.90
2024-05-09T12:59:56.019Z,58.86
2024-05-09T13:02:41.714Z,59.02
2024-05-09T13:05:27.156Z,58.86
2024-05-09T13:08:13.559Z,58.20
2024-05-09T13:10:59.248Z,59.26
2024-05-09T13:13:44.868Z,59.56
2024-05-09T13:16:31.577Z,59.52
2024-05-09T13:19:17.395Z,59.22
2024-05-09T13:22:02.979Z,57.70
2024-05-09T13:24:48.343Z,58.16
2024-05-09T13:27:34.667Z,58.09
2024-05-09T13:30:26.570Z,57.74
2024-05-09T13:33:20.994Z,56.20
2024-05-09T13:36:07.178Z,54.75
2024-05-09T13:38:52.639Z,53.94
2024-05-09T13:41:38.110Z,52.42
2024-05-09T13:44:23.600Z,53.64
2024-05-09T13:47:09.361Z,54.49
2024-05-09T13:49:54.779Z,54.07
2024-05-09T13:52:40.466Z,52.92
2024-05-09T13:55:26.241Z,53.07
2024-05-09T13:58:11.910Z,52.92
2024-05-09T14:00:57.192Z,50.52
2024-05-09T14:03:42.830Z,50.15
2024-05-09T14:06:28.373Z,50.40
2024-05-09T14:09:13.948Z,49.07
2024-05-09T14:11:59.672Z,48.69
2024-05-09T14:14:45.343Z,47.86
2024-05-09T14:17:31.020Z,47.97
2024-05-09T14:20:23.886Z,47.09
2024-05-09T14:23:18.155Z,46.11
2024-05-09T14:26:03.367Z,46.52
2024-05-09T14:28:48.687Z,46.94
2024-05-09T14:31:35.536Z,49.09
2024-05-09T14:34:22.896Z,49.80
2024-05-09T14:37:08.548Z,49.97
2024-05-09T14:39:54.072Z,50.30
2024-05-09T14:42:39.965Z,50.24
2024-05-09T14:45:25.296Z,49.87
2024-05-09T14:48:12.142Z,48.78
2024-05-09T14:50:57.472Z,48.51
2024-05-09T14:53:43.277Z,47.87
2024-05-09T14:56:29.250Z,47.87
2024-05-09T14:59:14.472Z,47.22
2024-05-09T15:02:00.295Z,46.65
2024-05-09T15:04:45.836Z,45.86
2024-05-09T15:07:31.323Z,45.40
2024-05-09T15:10:26.225Z,45.51
2024-05-09T15:13:17.528Z,45.03
2024-05-09T15:16:02.978Z,45.44
2024-05-09T15:18:48.472Z,45.76
2024-05-09T15:21:33.966Z,45.49
2024-05-09T15:24:19.469Z,45.54
2024-05-09T15:27:04.776Z,44.81
2024-05-09T15:29:50.046Z,45.09
2024-05-09T15:32:35.742Z,44.74
2024-05-09T15:35:21.520Z,45.27
2024-05-09T15:40:52.768Z,45.20
2024-05-09T15:43:38.406Z,45.42
2024-05-09T15:46:24.134Z,45.68
2024-05-09T15:49:10.033Z,45.72
2024-05-09T15:51:55.479Z,45.97
2024-05-09T15:54:40.764Z,45.37
2024-05-09T15:57:26.317Z,45.03
2024-05-09T16:00:21.863Z,45.04
2024-05-09T16:03:15.099Z,44.65
2024-05-09T16:06:01.346Z,45.71
2024-05-09T16:08:46.706Z,45.54
2024-05-09T16:11:32.339Z,45.68
2024-05-09T16:14:19.018Z,44.83
2024-05-09T16:17:05.168Z,45.29
2024-05-09T16:19:50.438Z,46.03
2024-05-09T16:22:35.463Z,46.58
2024-05-09T16:25:20.856Z,46.11
2024-05-09T16:28:09.729Z,46.57
2024-05-09T16:30:56.124Z,47.53
2024-05-09T16:33:41.894Z,47.05
2024-05-09T16:36:27.289Z,47.91
2024-05-09T16:39:12.708Z,46.76
2024-05-09T16:41:57.894Z,46.70
2024-05-09T16:44:43.488Z,47.31
2024-05-09T16:47:29.547Z,47.93
2024-05-09T16:50:19.089Z,47.99
2024-05-09T16:53:08.662Z,48.66
2024-05-09T16:55:54.806Z,48.56
2024-05-09T16:58:40.459Z,48.49
2024-05-09T17:01:26.291Z,48.59
2024-05-09T17:04:11.744Z,48.08
2024-05-09T17:06:57.271Z,48.16
2024-05-09T17:09:42.592Z,48.31
2024-05-09T17:12:27.900Z,48.72
2024-05-09T17:15:13.871Z,49.29
2024-05-09T17:17:59.653Z,49.33
2024-05-09T17:20:45.066Z,49.03
2024-05-09T17:23:31.854Z,48.41
2024-05-09T17:26:18.819Z,48.86
2024-05-09T17:29:05.381Z,48.63
2024-05-09T17:31:51.589Z,48.63
2024-05-09T17:34:37.425Z,48.81
2024-05-09T17:37:22.961Z,48.67
2024-05-09T17:40:16.614Z,48.42
2024-05-09T17:43:03.392Z,48.50
2024-05-09T17:45:49.104Z,48.07
2024-05-09T17:48:35.031Z,47.46
2024-05-09T17:51:20.594Z,47.69
2024-05-09T17:54:06.144Z,47.35
2024-05-09T17:56:51.766Z,47.44
2024-05-09T17:59:37.065Z,47.40
2024-05-09T18:02:22.807Z,46.84
2024-05-09T18:05:08.989Z,47.06
2024-05-09T18:07:54.871Z,46.45
2024-05-09T18:10:41.383Z,47.19
2024-05-09T18:13:27.445Z,46.94
2024-05-09T18:16:13.634Z,46.57
2024-05-09T18:18:59.058Z,46.74
2024-05-09T18:21:44.616Z,47.68
2024-05-09T18:24:30.058Z,48.21
2024-05-09T18:27:15.842Z,49.52
2024-05-09T18:30:01.206Z,50.56
2024-05-09T18:32:46.800Z,50.50
2024-05-09T18:35:32.365Z,49.99
2024-05-09T18:38:19.042Z,50.26
2024-05-09T18:41:05.097Z,50.52
2024-05-09T18:43:51.045Z,49.99
2024-05-09T18:46:36.476Z,50.21
2024-05-09T18:49:22.004Z,50.38
2024-05-09T18:52:07.491Z,49.93
2024-05-09T18:54:52.862Z,50.60
2024-05-09T18:57:38.316Z,50.60
2024-05-09T19:00:33.231Z,50.55
2024-05-09T19:03:22.620Z,50.92
2024-05-09T19:06:09.564Z,51.05
2024-05-09T19:08:54.953Z,51.92
2024-05-09T19:11:40.920Z,51.60
2024-05-09T19:14:26.143Z,50.92
2024-05-09T19:17:11.801Z,51.69
2024-05-09T19:19:57.513Z,52.08
2024-05-09T19:22:50.803Z,52.11
2024-05-09T19:25:36.680Z,52.00
2024-05-09T19:28:22.236Z,51.81
2024-05-09T19:31:13.970Z,51.28
2024-05-09T19:33:59.141Z,50.70
2024-05-09T19:36:44.881Z,51.06
2024-05-09T19:39:30.086Z,50.68
2024-05-09T19:42:15.666Z,50.72
2024-05-09T19:45:01.198Z,51.08
2024-05-09T19:47:47.165Z,50.86
2024-05-09T19:50:41.683Z,50.91
2024-05-09T19:53:29.612Z,50.83
2024-05-09T19:56:15.303Z,51.44
2024-05-09T19:59:00.998Z,51.64
2024-05-09T20:01:56.238Z,52.00
2024-05-09T20:04:45.712Z,51.87
2024-05-09T20:07:33.224Z,52.08
2024-05-09T20:10:23.915Z,52.28
2024-05-09T20:13:15.048Z,52.87
2024-05-09T20:16:01.488Z,53.39
2024-05-09T20:18:47.202Z,53.46
2024-05-09T20:21:32.625Z,53.63
2024-05-09T20:24:18.201Z,54.05
2024-05-09T20:27:03.877Z,53.91
2024-05-09T20:29:49.536Z,54.64
2024-05-09T20:32:35.045Z,55.17
2024-05-09T20:35:20.813Z,54.83
2024-05-09T20:38:06.219Z,55.49
2024-05-09T20:40:51.895Z,55.48
2024-05-09T20:43:37.062Z,55.90
2024-05-09T20:46:22.669Z,55.72
2024-05-09T20:49:08.599Z,55.71
2024-05-09T20:51:54.115Z,56.08
2024-05-09T20:54:39.563Z,56.38
2024-05-09T20:57:25.189Z,56.66
2024-05-09T21:00:15.383Z,56.85
2024-05-09T21:03:04.855Z,56.17
2024-05-09T21:05:50.716Z,56.89
2024-05-09T21:08:36.440Z,56.45
2024-05-09T21:11:23.071Z,57.03
2024-05-09T21:14:08.652Z,57.15
2024-05-09T21:16:54.226Z,57.20
2024-05-09T21:19:39.432Z,56.92
2024-05-09T21:22:25.262Z,57.54
2024-05-09T21:25:11.008Z,57.91
2024-05-09T21:27:56.557Z,57.53
2024-05-09T21:30:43.215Z,57.67
2024-05-09T21:33:28.927Z,58.20
2024-05-09T21:36:14.376Z,57.57
2024-05-09T21:38:59.428Z,57.49
2024-05-09T21:41:45.228Z,58.11
2024-05-09T21:44:30.585Z,58.61
2024-05-09T21:47:16.057Z,58.81
2024-05-09T21:50:01.694Z,58.46
2024-05-09T21:52:47.007Z,59.14
2024-05-09T21:55:32.178Z,58.86
2024-05-09T21:58:26.580Z,59.39
2024-05-09T22:01:13.573Z,59.98
2024-05-09T22:03:59.205Z,59.98
2024-05-09T22:06:44.612Z,60.71
2024-05-09T22:09:29.726Z,61.00
2024-05-09T22:12:14.999Z,61.46
2024-05-09T22:15:00.345Z,60.79
2024-05-09T22:17:46.156Z,60.04
2024-05-09T22:20:37.149Z,60.52
2024-05-09T22:23:24.526Z,60.54
2024-05-09T22:26:09.857Z,60.69
2024-05-09T22:28:55.497Z,60.89
2024-05-09T22:31:40.992Z,60.88
2024-05-09T22:34:26.713Z,61.11
2024-05-09T22:37:12.506Z,62.00
2024-05-09T22:39:58.000Z,62.67
2024-05-09T22:42:43.589Z,63.56
2024-05-09T22:45:29.145Z,63.36
2024-05-09T22:48:14.952Z,62.24
2024-05-09T22:51:00.823Z,63.26
2024-05-09T22:53:45.871Z,63.21
2024-05-09T22:56:31.475Z,62.98
2024-05-09T22:59:18.086Z,63.34
2024-05-09T23:02:03.958Z,63.69
2024-05-09T23:04:49.543Z,63.59
2024-05-09T23:07:34.775Z,63.66
2024-05-09T23:10:27.492Z,63.47
2024-05-09T23:13:17.848Z,63.95
2024-05-09T23:16:03.523Z,63.47
2024-05-09T23:18:48.966Z,63.77
2024-05-09T23:21:38.672Z,64.11
2024-05-09T23:24:24.016Z,64.60
2024-05-09T23:27:09.777Z,64.87
2024-05-09T23:29:55.268Z,64.71
2024-05-09T23:32:40.661Z,65.41
2024-05-09T23:35:26.602Z,65.01
2024-05-09T23:38:12.498Z,65.00
2024-05-09T23:40:58.349Z,65.06
2024-05-09T23:43:43.614Z,65.82
2024-05-09T23:46:29.450Z,65.67
2024-05-09T23:49:15.025Z,66.61
2024-05-09T23:52:00.539Z,67.73
2024-05-09T23:54:46.849Z,68.01
2024-05-09T23:57:32.588Z,67.44
